sensor_id;sensor_type;location;lat;lon;timestamp;temperature;humidity
68189;DHT22;55008;47.514;19.218;2022-09-28T00:00:09;10.39;86.30
68189;DHT22;55008;47.514;19.218;2022-09-28T00:02:41;10.25;87.02
68189;DHT22;55008;47.514;19.218;2022-09-28T00:05:10;10.19;86.99
68189;DHT22;55008;47.514;19.218;2022-09-28T00:07:40;10.19;86.29
68189;DHT22;55008;47.514;19.218;2022-09-28T00:10:10;10.16;85.89
68189;DHT22;55008;47.514;19.218;2022-09-28T00:12:40;10.16;86.07
68189;DHT22;55008;47.514;19.218;2022-09-28T00:15:12;10.15;86.42
68189;DHT22;55008;47.514;19.218;2022-09-28T00:17:41;10.15;85.71
68189;DHT22;55008;47.514;19.218;2022-09-28T00:20:11;10.17;85.21
68189;DHT22;55008;47.514;19.218;2022-09-28T00:22:39;10.15;85.54
68189;DHT22;55008;47.514;19.218;2022-09-28T00:25:09;10.17;85.11
68189;DHT22;55008;47.514;19.218;2022-09-28T00:27:48;10.10;86.41
68189;DHT22;55008;47.514;19.218;2022-09-28T00:30:17;10.05;85.53
68189;DHT22;55008;47.514;19.218;2022-09-28T00:32:45;9.99;86.63
68189;DHT22;55008;47.514;19.218;2022-09-28T00:35:14;10.03;86.04
68189;DHT22;55008;47.514;19.218;2022-09-28T00:37:42;10.05;86.02
68189;DHT22;55008;47.514;19.218;2022-09-28T00:40:12;10.06;85.65
68189;DHT22;55008;47.514;19.218;2022-09-28T00:42:42;10.05;85.18
68189;DHT22;55008;47.514;19.218;2022-09-28T00:45:12;9.95;86.09
68189;DHT22;55008;47.514;19.218;2022-09-28T00:47:48;9.92;85.98
68189;DHT22;55008;47.514;19.218;2022-09-28T00:50:23;10.01;85.78
68189;DHT22;55008;47.514;19.218;2022-09-28T00:52:59;10.01;86.11
68189;DHT22;55008;47.514;19.218;2022-09-28T00:55:33;9.91;86.52
68189;DHT22;55008;47.514;19.218;2022-09-28T00:58:08;9.85;86.75
68189;DHT22;55008;47.514;19.218;2022-09-28T01:00:39;9.86;86.36
68189;DHT22;55008;47.514;19.218;2022-09-28T01:03:09;9.92;85.97
68189;DHT22;55008;47.514;19.218;2022-09-28T01:05:41;9.98;85.37
68189;DHT22;55008;47.514;19.218;2022-09-28T01:08:11;10.05;85.33
68189;DHT22;55008;47.514;19.218;2022-09-28T01:10:41;10.08;84.26
68189;DHT22;55008;47.514;19.218;2022-09-28T01:13:11;10.22;83.43
68189;DHT22;55008;47.514;19.218;2022-09-28T01:15:43;10.19;83.86
68189;DHT22;55008;47.514;19.218;2022-09-28T01:18:22;10.16;83.98
68189;DHT22;55008;47.514;19.218;2022-09-28T01:20:59;10.05;85.35
68189;DHT22;55008;47.514;19.218;2022-09-28T01:23:52;10.01;84.78
68189;DHT22;55008;47.514;19.218;2022-09-28T01:29:39;10.06;84.30
68189;DHT22;55008;47.514;19.218;2022-09-28T01:32:21;10.06;84.02
68189;DHT22;55008;47.514;19.218;2022-09-28T01:34:57;10.12;83.92
68189;DHT22;55008;47.514;19.218;2022-09-28T01:37:34;10.05;84.21
68189;DHT22;55008;47.514;19.218;2022-09-28T01:40:05;10.09;84.17
68189;DHT22;55008;47.514;19.218;2022-09-28T01:42:43;10.02;84.11
68189;DHT22;55008;47.514;19.218;2022-09-28T01:45:17;10.02;84.38
68189;DHT22;55008;47.514;19.218;2022-09-28T01:47:49;10.03;84.26
68189;DHT22;55008;47.514;19.218;2022-09-28T01:50:21;9.99;84.44
68189;DHT22;55008;47.514;19.218;2022-09-28T01:52:54;9.94;84.42
68189;DHT22;55008;47.514;19.218;2022-09-28T01:55:27;10.03;83.18
68189;DHT22;55008;47.514;19.218;2022-09-28T01:58:01;10.23;81.57
68189;DHT22;55008;47.514;19.218;2022-09-28T02:00:38;10.19;81.86
68189;DHT22;55008;47.514;19.218;2022-09-28T02:03:11;10.19;82.16
68189;DHT22;55008;47.514;19.218;2022-09-28T02:05:49;10.16;81.81
68189;DHT22;55008;47.514;19.218;2022-09-28T02:08:24;10.26;81.19
68189;DHT22;55008;47.514;19.218;2022-09-28T02:10:59;10.32;80.74
68189;DHT22;55008;47.514;19.218;2022-09-28T02:13:32;10.34;80.85
68189;DHT22;55008;47.514;19.218;2022-09-28T02:16:04;10.54;79.09
68189;DHT22;55008;47.514;19.218;2022-09-28T02:18:36;10.50;80.29
68189;DHT22;55008;47.514;19.218;2022-09-28T02:21:12;10.52;79.73
68189;DHT22;55008;47.514;19.218;2022-09-28T02:23:50;10.53;79.84
68189;DHT22;55008;47.514;19.218;2022-09-28T02:26:26;10.59;79.50
68189;DHT22;55008;47.514;19.218;2022-09-28T02:28:58;10.53;79.79
68189;DHT22;55008;47.514;19.218;2022-09-28T02:31:34;10.57;79.51
68189;DHT22;55008;47.514;19.218;2022-09-28T02:34:03;10.56;79.69
68189;DHT22;55008;47.514;19.218;2022-09-28T02:36:38;10.53;79.68
68189;DHT22;55008;47.514;19.218;2022-09-28T02:39:12;10.49;79.92
68189;DHT22;55008;47.514;19.218;2022-09-28T02:41:50;10.42;80.75
68189;DHT22;55008;47.514;19.218;2022-09-28T02:44:36;10.42;80.42
68189;DHT22;55008;47.514;19.218;2022-09-28T02:47:17;10.39;81.21
68189;DHT22;55008;47.514;19.218;2022-09-28T02:49:57;10.37;80.14
68189;DHT22;55008;47.514;19.218;2022-09-28T02:52:47;10.39;80.32
68189;DHT22;55008;47.514;19.218;2022-09-28T02:55:23;10.33;80.33
68189;DHT22;55008;47.514;19.218;2022-09-28T02:58:16;10.39;79.96
68189;DHT22;55008;47.514;19.218;2022-09-28T03:00:53;10.28;80.63
68189;DHT22;55008;47.514;19.218;2022-09-28T03:03:31;10.23;81.18
68189;DHT22;55008;47.514;19.218;2022-09-28T03:06:04;10.16;81.44
68189;DHT22;55008;47.514;19.218;2022-09-28T03:08:41;10.09;82.03
68189;DHT22;55008;47.514;19.218;2022-09-28T03:11:13;10.01;82.79
68189;DHT22;55008;47.514;19.218;2022-09-28T03:13:46;10.05;81.66
68189;DHT22;55008;47.514;19.218;2022-09-28T03:16:19;10.10;81.49
68189;DHT22;55008;47.514;19.218;2022-09-28T03:18:48;10.10;81.97
68189;DHT22;55008;47.514;19.218;2022-09-28T03:21:21;10.02;81.83
68189;DHT22;55008;47.514;19.218;2022-09-28T03:23:51;9.99;82.32
68189;DHT22;55008;47.514;19.218;2022-09-28T03:26:26;9.96;82.73
68189;DHT22;55008;47.514;19.218;2022-09-28T03:28:56;9.99;82.32
68189;DHT22;55008;47.514;19.218;2022-09-28T03:31:30;10.02;82.77
68189;DHT22;55008;47.514;19.218;2022-09-28T03:33:58;9.95;82.32
68189;DHT22;55008;47.514;19.218;2022-09-28T03:36:30;10.02;81.82
68189;DHT22;55008;47.514;19.218;2022-09-28T03:39:05;9.96;83.05
68189;DHT22;55008;47.514;19.218;2022-09-28T03:41:33;9.94;82.57
68189;DHT22;55008;47.514;19.218;2022-09-28T03:44:03;9.91;82.29
68189;DHT22;55008;47.514;19.218;2022-09-28T03:46:36;9.92;82.41
68189;DHT22;55008;47.514;19.218;2022-09-28T03:49:08;9.82;83.72
68189;DHT22;55008;47.514;19.218;2022-09-28T03:51:40;9.79;83.30
68189;DHT22;55008;47.514;19.218;2022-09-28T03:54:10;9.75;83.77
68189;DHT22;55008;47.514;19.218;2022-09-28T03:56:39;9.71;83.81
68189;DHT22;55008;47.514;19.218;2022-09-28T03:59:08;9.70;83.72
68189;DHT22;55008;47.514;19.218;2022-09-28T04:01:42;9.78;83.48
68189;DHT22;55008;47.514;19.218;2022-09-28T04:04:11;9.82;82.37
68189;DHT22;55008;47.514;19.218;2022-09-28T04:06:41;9.82;82.43
68189;DHT22;55008;47.514;19.218;2022-09-28T04:09:10;9.77;83.35
68189;DHT22;55008;47.514;19.218;2022-09-28T04:11:39;9.77;83.59
68189;DHT22;55008;47.514;19.218;2022-09-28T04:14:34;9.81;83.15
68189;DHT22;55008;47.514;19.218;2022-09-28T04:17:04;9.84;81.85
68189;DHT22;55008;47.514;19.218;2022-09-28T04:19:33;9.78;82.27
68189;DHT22;55008;47.514;19.218;2022-09-28T04:22:02;9.82;81.37
68189;DHT22;55008;47.514;19.218;2022-09-28T04:24:33;9.78;81.94
68189;DHT22;55008;47.514;19.218;2022-09-28T04:27:09;9.75;82.58
68189;DHT22;55008;47.514;19.218;2022-09-28T04:29:54;9.74;82.85
68189;DHT22;55008;47.514;19.218;2022-09-28T04:32:28;9.67;83.04
68189;DHT22;55008;47.514;19.218;2022-09-28T04:35:13;9.64;82.93
68189;DHT22;55008;47.514;19.218;2022-09-28T04:37:41;9.54;84.05
68189;DHT22;55008;47.514;19.218;2022-09-28T04:40:14;9.52;83.44
68189;DHT22;55008;47.514;19.218;2022-09-28T04:42:54;9.43;83.96
68189;DHT22;55008;47.514;19.218;2022-09-28T04:45:25;9.37;84.75
68189;DHT22;55008;47.514;19.218;2022-09-28T04:48:03;9.51;82.67
68189;DHT22;55008;47.514;19.218;2022-09-28T04:50:35;9.47;82.86
68189;DHT22;55008;47.514;19.218;2022-09-28T04:53:09;9.47;83.22
68189;DHT22;55008;47.514;19.218;2022-09-28T04:55:39;9.46;83.50
68189;DHT22;55008;47.514;19.218;2022-09-28T04:58:12;9.48;82.85
68189;DHT22;55008;47.514;19.218;2022-09-28T05:00:42;9.52;82.61
68189;DHT22;55008;47.514;19.218;2022-09-28T05:03:21;9.62;82.05
68189;DHT22;55008;47.514;19.218;2022-09-28T05:05:52;9.57;82.37
68189;DHT22;55008;47.514;19.218;2022-09-28T05:08:22;9.52;82.74
68189;DHT22;55008;47.514;19.218;2022-09-28T05:10:56;9.55;81.92
68189;DHT22;55008;47.514;19.218;2022-09-28T05:13:25;9.46;82.69
68189;DHT22;55008;47.514;19.218;2022-09-28T05:15:54;9.46;83.01
68189;DHT22;55008;47.514;19.218;2022-09-28T05:18:33;9.43;83.03
68189;DHT22;55008;47.514;19.218;2022-09-28T05:21:02;9.36;83.02
68189;DHT22;55008;47.514;19.218;2022-09-28T05:23:31;9.37;82.69
68189;DHT22;55008;47.514;19.218;2022-09-28T05:26:01;9.43;82.47
68189;DHT22;55008;47.514;19.218;2022-09-28T05:28:31;9.44;82.46
68189;DHT22;55008;47.514;19.218;2022-09-28T05:31:03;9.40;82.64
68189;DHT22;55008;47.514;19.218;2022-09-28T05:33:33;9.33;83.33
68189;DHT22;55008;47.514;19.218;2022-09-28T05:36:07;9.31;83.18
68189;DHT22;55008;47.514;19.218;2022-09-28T05:38:38;9.31;83.08
68189;DHT22;55008;47.514;19.218;2022-09-28T05:41:09;9.26;83.49
68189;DHT22;55008;47.514;19.218;2022-09-28T05:43:45;9.31;83.42
68189;DHT22;55008;47.514;19.218;2022-09-28T05:46:14;9.34;83.27
68189;DHT22;55008;47.514;19.218;2022-09-28T05:48:45;9.44;82.63
68189;DHT22;55008;47.514;19.218;2022-09-28T05:51:13;9.48;82.90
68189;DHT22;55008;47.514;19.218;2022-09-28T05:53:48;9.54;82.59
68189;DHT22;55008;47.514;19.218;2022-09-28T05:56:16;9.55;82.44
68189;DHT22;55008;47.514;19.218;2022-09-28T05:58:47;9.62;82.35
68189;DHT22;55008;47.514;19.218;2022-09-28T06:01:16;9.79;81.73
68189;DHT22;55008;47.514;19.218;2022-09-28T06:03:46;9.82;82.13
68189;DHT22;55008;47.514;19.218;2022-09-28T06:06:14;9.96;81.55
68189;DHT22;55008;47.514;19.218;2022-09-28T06:08:43;10.01;81.03
68189;DHT22;55008;47.514;19.218;2022-09-28T06:11:12;10.16;79.97
68189;DHT22;55008;47.514;19.218;2022-09-28T06:13:43;10.26;80.13
68189;DHT22;55008;47.514;19.218;2022-09-28T06:16:14;10.22;80.65
68189;DHT22;55008;47.514;19.218;2022-09-28T06:18:43;10.23;80.14
68189;DHT22;55008;47.514;19.218;2022-09-28T06:21:18;10.28;79.90
68189;DHT22;55008;47.514;19.218;2022-09-28T06:23:49;10.36;79.44
68189;DHT22;55008;47.514;19.218;2022-09-28T06:26:18;10.52;79.54
68189;DHT22;55008;47.514;19.218;2022-09-28T06:28:52;10.50;80.77
68189;DHT22;55008;47.514;19.218;2022-09-28T06:31:22;10.46;80.25
68189;DHT22;55008;47.514;19.218;2022-09-28T06:33:53;10.57;79.09
68189;DHT22;55008;47.514;19.218;2022-09-28T06:36:27;10.63;78.40
68189;DHT22;55008;47.514;19.218;2022-09-28T06:38:57;10.68;78.25
68189;DHT22;55008;47.514;19.218;2022-09-28T06:41:28;10.73;77.96
68189;DHT22;55008;47.514;19.218;2022-09-28T06:43:58;10.88;79.01
68189;DHT22;55008;47.514;19.218;2022-09-28T06:46:31;10.87;78.35
68189;DHT22;55008;47.514;19.218;2022-09-28T06:49:09;10.91;78.02
68189;DHT22;55008;47.514;19.218;2022-09-28T06:51:48;11.11;77.23
68189;DHT22;55008;47.514;19.218;2022-09-28T06:54:16;11.15;78.39
68189;DHT22;55008;47.514;19.218;2022-09-28T06:56:52;11.29;76.66
68189;DHT22;55008;47.514;19.218;2022-09-28T06:59:20;11.35;74.96
68189;DHT22;55008;47.514;19.218;2022-09-28T07:01:49;11.38;75.78
68189;DHT22;55008;47.514;19.218;2022-09-28T07:04:21;11.40;75.90
68189;DHT22;55008;47.514;19.218;2022-09-28T07:06:50;11.49;74.96
68189;DHT22;55008;47.514;19.218;2022-09-28T07:09:19;11.56;75.77
68189;DHT22;55008;47.514;19.218;2022-09-28T07:11:59;11.66;76.11
68189;DHT22;55008;47.514;19.218;2022-09-28T07:14:36;11.80;74.72
68189;DHT22;55008;47.514;19.218;2022-09-28T07:17:14;11.93;73.27
68189;DHT22;55008;47.514;19.218;2022-09-28T07:19:42;11.95;73.49
68189;DHT22;55008;47.514;19.218;2022-09-28T07:22:13;11.98;74.62
68189;DHT22;55008;47.514;19.218;2022-09-28T07:24:45;12.02;73.72
68189;DHT22;55008;47.514;19.218;2022-09-28T07:27:16;12.10;72.36
68189;DHT22;55008;47.514;19.218;2022-09-28T07:29:45;12.15;73.40
68189;DHT22;55008;47.514;19.218;2022-09-28T07:32:13;12.21;72.68
68189;DHT22;55008;47.514;19.218;2022-09-28T07:34:42;12.29;71.20
68189;DHT22;55008;47.514;19.218;2022-09-28T07:37:12;12.46;69.56
68189;DHT22;55008;47.514;19.218;2022-09-28T07:39:41;12.69;70.00
68189;DHT22;55008;47.514;19.218;2022-09-28T07:42:27;12.67;68.61
68189;DHT22;55008;47.514;19.218;2022-09-28T07:44:57;12.80;68.35
68189;DHT22;55008;47.514;19.218;2022-09-28T07:47:26;12.79;69.61
68189;DHT22;55008;47.514;19.218;2022-09-28T07:50:01;12.86;69.85
68189;DHT22;55008;47.514;19.218;2022-09-28T07:52:31;13.02;71.28
68189;DHT22;55008;47.514;19.218;2022-09-28T07:55:05;13.14;70.45
68189;DHT22;55008;47.514;19.218;2022-09-28T07:57:33;13.11;69.43
68189;DHT22;55008;47.514;19.218;2022-09-28T08:00:04;13.20;68.99
68189;DHT22;55008;47.514;19.218;2022-09-28T08:02:34;13.27;69.87
68189;DHT22;55008;47.514;19.218;2022-09-28T08:05:04;13.30;70.29
68189;DHT22;55008;47.514;19.218;2022-09-28T08:07:37;13.31;70.68
68189;DHT22;55008;47.514;19.218;2022-09-28T08:10:08;13.47;71.59
68189;DHT22;55008;47.514;19.218;2022-09-28T08:12:37;13.63;70.19
68189;DHT22;55008;47.514;19.218;2022-09-28T08:15:07;13.71;71.22
68189;DHT22;55008;47.514;19.218;2022-09-28T08:17:38;13.95;71.26
68189;DHT22;55008;47.514;19.218;2022-09-28T08:20:10;14.10;70.31
68189;DHT22;55008;47.514;19.218;2022-09-28T08:23:03;14.20;71.11
68189;DHT22;55008;47.514;19.218;2022-09-28T08:25:31;14.20;72.97
68189;DHT22;55008;47.514;19.218;2022-09-28T08:28:04;14.28;71.72
68189;DHT22;55008;47.514;19.218;2022-09-28T08:30:33;14.27;72.35
68189;DHT22;55008;47.514;19.218;2022-09-28T08:33:02;14.20;71.75
68189;DHT22;55008;47.514;19.218;2022-09-28T08:35:31;14.30;72.04
68189;DHT22;55008;47.514;19.218;2022-09-28T08:38:00;14.36;72.37
68189;DHT22;55008;47.514;19.218;2022-09-28T08:40:42;14.49;71.20
68189;DHT22;55008;47.514;19.218;2022-09-28T08:43:23;14.51;71.46
68189;DHT22;55008;47.514;19.218;2022-09-28T08:45:57;14.57;72.22
68189;DHT22;55008;47.514;19.218;2022-09-28T08:48:30;14.69;72.05
68189;DHT22;55008;47.514;19.218;2022-09-28T08:51:35;14.84;71.12
68189;DHT22;55008;47.514;19.218;2022-09-28T08:54:12;15.16;71.36
68189;DHT22;55008;47.514;19.218;2022-09-28T08:56:51;15.40;69.06
68189;DHT22;55008;47.514;19.218;2022-09-28T08:59:23;15.63;69.00
68189;DHT22;55008;47.514;19.218;2022-09-28T09:01:55;15.87;68.69
68189;DHT22;55008;47.514;19.218;2022-09-28T09:04:26;16.11;69.27
68189;DHT22;55008;47.514;19.218;2022-09-28T09:07:17;16.16;67.42
68189;DHT22;55008;47.514;19.218;2022-09-28T09:10:02;16.13;67.67
68189;DHT22;55008;47.514;19.218;2022-09-28T09:12:40;16.02;66.89
68189;DHT22;55008;47.514;19.218;2022-09-28T09:15:26;15.95;67.48
68189;DHT22;55008;47.514;19.218;2022-09-28T09:18:09;15.94;66.99
68189;DHT22;55008;47.514;19.218;2022-09-28T09:20:50;15.78;67.14
68189;DHT22;55008;47.514;19.218;2022-09-28T09:23:28;15.74;67.95
68189;DHT22;55008;47.514;19.218;2022-09-28T09:26:07;15.87;67.92
68189;DHT22;55008;47.514;19.218;2022-09-28T09:29:00;15.82;67.27
68189;DHT22;55008;47.514;19.218;2022-09-28T09:31:41;15.92;67.20
68189;DHT22;55008;47.514;19.218;2022-09-28T09:34:21;15.97;66.44
68189;DHT22;55008;47.514;19.218;2022-09-28T09:37:05;16.09;67.81
68189;DHT22;55008;47.514;19.218;2022-09-28T09:39:54;16.02;66.22
68189;DHT22;55008;47.514;19.218;2022-09-28T09:42:36;16.00;66.21
68189;DHT22;55008;47.514;19.218;2022-09-28T09:45:22;16.25;66.96
68189;DHT22;55008;47.514;19.218;2022-09-28T09:47:56;16.42;66.22
68189;DHT22;55008;47.514;19.218;2022-09-28T09:50:30;16.49;65.96
68189;DHT22;55008;47.514;19.218;2022-09-28T09:53:02;16.64;65.29
68189;DHT22;55008;47.514;19.218;2022-09-28T09:55:37;16.61;65.70
68189;DHT22;55008;47.514;19.218;2022-09-28T09:58:10;16.74;65.94
68189;DHT22;55008;47.514;19.218;2022-09-28T10:00:48;16.80;65.71
68189;DHT22;55008;47.514;19.218;2022-09-28T10:03:22;16.98;64.34
68189;DHT22;55008;47.514;19.218;2022-09-28T10:06:03;17.18;64.32
68189;DHT22;55008;47.514;19.218;2022-09-28T10:08:36;17.14;63.06
68189;DHT22;55008;47.514;19.218;2022-09-28T10:11:10;16.94;63.57
68189;DHT22;55008;47.514;19.218;2022-09-28T10:13:40;16.78;63.85
68189;DHT22;55008;47.514;19.218;2022-09-28T10:16:11;16.69;65.45
68189;DHT22;55008;47.514;19.218;2022-09-28T10:18:40;16.43;65.19
68189;DHT22;55008;47.514;19.218;2022-09-28T10:21:11;16.38;66.45
68189;DHT22;55008;47.514;19.218;2022-09-28T10:23:42;16.29;65.68
68189;DHT22;55008;47.514;19.218;2022-09-28T10:26:23;16.32;67.62
68189;DHT22;55008;47.514;19.218;2022-09-28T10:28:55;16.50;66.69
68189;DHT22;55008;47.514;19.218;2022-09-28T10:31:36;16.90;66.05
68189;DHT22;55008;47.514;19.218;2022-09-28T10:34:10;17.04;65.91
68189;DHT22;55008;47.514;19.218;2022-09-28T10:36:47;17.14;65.62
68189;DHT22;55008;47.514;19.218;2022-09-28T10:39:27;17.52;64.56
68189;DHT22;55008;47.514;19.218;2022-09-28T10:42:00;17.50;64.07
68189;DHT22;55008;47.514;19.218;2022-09-28T10:44:32;17.70;64.78
68189;DHT22;55008;47.514;19.218;2022-09-28T10:47:14;17.67;63.72
68189;DHT22;55008;47.514;19.218;2022-09-28T10:49:51;17.61;64.29
68189;DHT22;55008;47.514;19.218;2022-09-28T10:52:36;17.53;63.25
68189;DHT22;55008;47.514;19.218;2022-09-28T10:55:25;17.42;64.39
68189;DHT22;55008;47.514;19.218;2022-09-28T10:58:10;17.45;62.72
68189;DHT22;55008;47.514;19.218;2022-09-28T11:00:56;17.39;62.13
68189;DHT22;55008;47.514;19.218;2022-09-28T11:03:29;17.14;64.63
68189;DHT22;55008;47.514;19.218;2022-09-28T11:06:00;16.84;66.18
68189;DHT22;55008;47.514;19.218;2022-09-28T11:08:35;16.61;67.09
68189;DHT22;55008;47.514;19.218;2022-09-28T11:11:08;16.71;66.35
68189;DHT22;55008;47.514;19.218;2022-09-28T11:13:42;16.67;65.53
68189;DHT22;55008;47.514;19.218;2022-09-28T11:16:29;16.77;65.51
68189;DHT22;55008;47.514;19.218;2022-09-28T11:21:50;17.39;64.07
68189;DHT22;55008;47.514;19.218;2022-09-28T11:24:19;17.63;63.39
68189;DHT22;55008;47.514;19.218;2022-09-28T11:26:51;17.52;63.47
68189;DHT22;55008;47.514;19.218;2022-09-28T11:29:33;17.87;62.26
68189;DHT22;55008;47.514;19.218;2022-09-28T11:32:04;17.59;62.83
68189;DHT22;55008;47.514;19.218;2022-09-28T11:34:42;17.40;62.55
68189;DHT22;55008;47.514;19.218;2022-09-28T11:38:07;17.59;60.12
68189;DHT22;55008;47.514;19.218;2022-09-28T11:40:47;17.77;62.82
68189;DHT22;55008;47.514;19.218;2022-09-28T11:43:28;17.77;62.57
68189;DHT22;55008;47.514;19.218;2022-09-28T11:46:04;18.04;61.51
68189;DHT22;55008;47.514;19.218;2022-09-28T11:48:41;17.62;61.24
68189;DHT22;55008;47.514;19.218;2022-09-28T11:51:15;18.00;62.19
68189;DHT22;55008;47.514;19.218;2022-09-28T11:53:52;18.23;61.54
68189;DHT22;55008;47.514;19.218;2022-09-28T11:56:30;18.30;61.25
68189;DHT22;55008;47.514;19.218;2022-09-28T11:59:07;18.10;61.09
68189;DHT22;55008;47.514;19.218;2022-09-28T12:01:43;18.42;59.85
68189;DHT22;55008;47.514;19.218;2022-09-28T12:04:16;18.17;60.89
68189;DHT22;55008;47.514;19.218;2022-09-28T12:06:57;18.24;60.75
68189;DHT22;55008;47.514;19.218;2022-09-28T12:09:33;17.90;60.73
68189;DHT22;55008;47.514;19.218;2022-09-28T12:12:09;18.18;60.30
68189;DHT22;55008;47.514;19.218;2022-09-28T12:14:41;18.41;59.30
68189;DHT22;55008;47.514;19.218;2022-09-28T12:17:17;18.40;59.53
68189;DHT22;55008;47.514;19.218;2022-09-28T12:19:54;18.41;58.74
68189;DHT22;55008;47.514;19.218;2022-09-28T12:22:31;18.42;59.60
68189;DHT22;55008;47.514;19.218;2022-09-28T12:25:01;18.35;60.02
68189;DHT22;55008;47.514;19.218;2022-09-28T12:27:38;18.45;59.24
68189;DHT22;55008;47.514;19.218;2022-09-28T12:30:13;18.83;59.74
68189;DHT22;55008;47.514;19.218;2022-09-28T12:32:47;18.96;59.43
68189;DHT22;55008;47.514;19.218;2022-09-28T12:35:26;19.19;57.96
68189;DHT22;55008;47.514;19.218;2022-09-28T12:38:21;19.31;57.00
68189;DHT22;55008;47.514;19.218;2022-09-28T12:40:55;19.13;57.10
68189;DHT22;55008;47.514;19.218;2022-09-28T12:43:48;18.93;56.33
68189;DHT22;55008;47.514;19.218;2022-09-28T12:49:20;18.77;55.86
68189;DHT22;55008;47.514;19.218;2022-09-28T12:52:24;18.71;56.23
68189;DHT22;55008;47.514;19.218;2022-09-28T12:58:14;18.95;57.07
68189;DHT22;55008;47.514;19.218;2022-09-28T13:00:54;19.31;57.14
68189;DHT22;55008;47.514;19.218;2022-09-28T13:06:57;19.59;56.65
68189;DHT22;55008;47.514;19.218;2022-09-28T13:09:34;19.55;56.31
68189;DHT22;55008;47.514;19.218;2022-09-28T13:12:16;19.68;58.19
68189;DHT22;55008;47.514;19.218;2022-09-28T13:15:34;19.30;57.03
68189;DHT22;55008;47.514;19.218;2022-09-28T13:18:18;18.79;56.49
68189;DHT22;55008;47.514;19.218;2022-09-28T13:21:17;18.38;57.18
68189;DHT22;55008;47.514;19.218;2022-09-28T13:23:50;17.93;57.95
68189;DHT22;55008;47.514;19.218;2022-09-28T13:26:36;17.70;58.65
68189;DHT22;55008;47.514;19.218;2022-09-28T13:29:10;17.67;59.12
68189;DHT22;55008;47.514;19.218;2022-09-28T13:31:44;17.59;59.42
68189;DHT22;55008;47.514;19.218;2022-09-28T13:34:18;17.56;59.96
68189;DHT22;55008;47.514;19.218;2022-09-28T13:37:18;17.69;59.71
68189;DHT22;55008;47.514;19.218;2022-09-28T13:39:48;17.73;59.32
68189;DHT22;55008;47.514;19.218;2022-09-28T13:45:32;17.73;56.88
68189;DHT22;55008;47.514;19.218;2022-09-28T13:48:33;17.73;56.15
68189;DHT22;55008;47.514;19.218;2022-09-28T13:51:17;17.70;56.50
68189;DHT22;55008;47.514;19.218;2022-09-28T13:54:17;17.76;55.83
68189;DHT22;55008;47.514;19.218;2022-09-28T13:56:52;17.82;55.99
68189;DHT22;55008;47.514;19.218;2022-09-28T13:59:25;17.72;55.19
68189;DHT22;55008;47.514;19.218;2022-09-28T14:01:58;17.73;55.85
68189;DHT22;55008;47.514;19.218;2022-09-28T14:04:58;17.73;55.98
68189;DHT22;55008;47.514;19.218;2022-09-28T14:07:56;17.67;56.87
68189;DHT22;55008;47.514;19.218;2022-09-28T14:10:47;17.69;56.88
68189;DHT22;55008;47.514;19.218;2022-09-28T14:16:25;17.62;57.15
68189;DHT22;55008;47.514;19.218;2022-09-28T14:18:56;17.69;56.87
68189;DHT22;55008;47.514;19.218;2022-09-28T14:21:57;17.80;57.09
68189;DHT22;55008;47.514;19.218;2022-09-28T14:24:49;17.57;58.89
68189;DHT22;55008;47.514;19.218;2022-09-28T14:27:43;17.50;58.17
68189;DHT22;55008;47.514;19.218;2022-09-28T14:30:25;17.39;58.11
68189;DHT22;55008;47.514;19.218;2022-09-28T14:32:58;17.38;59.13
68189;DHT22;55008;47.514;19.218;2022-09-28T14:35:31;17.32;59.28
68189;DHT22;55008;47.514;19.218;2022-09-28T14:38:05;17.19;59.85
68189;DHT22;55008;47.514;19.218;2022-09-28T14:41:02;17.19;60.83
68189;DHT22;55008;47.514;19.218;2022-09-28T14:43:57;17.19;59.79
68189;DHT22;55008;47.514;19.218;2022-09-28T14:46:29;17.22;59.91
68189;DHT22;55008;47.514;19.218;2022-09-28T14:48:58;17.22;57.89
68189;DHT22;55008;47.514;19.218;2022-09-28T14:51:59;17.14;57.85
68189;DHT22;55008;47.514;19.218;2022-09-28T14:54:44;17.03;58.03
68189;DHT22;55008;47.514;19.218;2022-09-28T14:57:18;16.94;59.39
68189;DHT22;55008;47.514;19.218;2022-09-28T14:59:47;16.88;58.81
68189;DHT22;55008;47.514;19.218;2022-09-28T15:02:23;16.81;59.25
68189;DHT22;55008;47.514;19.218;2022-09-28T15:04:54;16.71;59.41
68189;DHT22;55008;47.514;19.218;2022-09-28T15:07:27;16.77;59.53
68189;DHT22;55008;47.514;19.218;2022-09-28T15:10:01;16.73;60.44
68189;DHT22;55008;47.514;19.218;2022-09-28T15:12:30;16.74;61.08
68189;DHT22;55008;47.514;19.218;2022-09-28T15:15:06;16.77;61.23
68189;DHT22;55008;47.514;19.218;2022-09-28T15:17:47;16.71;61.02
68189;DHT22;55008;47.514;19.218;2022-09-28T15:20:26;16.59;62.32
68189;DHT22;55008;47.514;19.218;2022-09-28T15:23:03;16.55;62.46
68189;DHT22;55008;47.514;19.218;2022-09-28T15:25:34;16.49;62.21
68189;DHT22;55008;47.514;19.218;2022-09-28T15:28:17;16.42;63.39
68189;DHT22;55008;47.514;19.218;2022-09-28T15:30:49;16.32;63.72
68189;DHT22;55008;47.514;19.218;2022-09-28T15:33:25;16.33;63.32
68189;DHT22;55008;47.514;19.218;2022-09-28T15:36:15;16.28;64.44
68189;DHT22;55008;47.514;19.218;2022-09-28T15:38:55;16.18;65.37
68189;DHT22;55008;47.514;19.218;2022-09-28T15:41:32;16.16;64.53
68189;DHT22;55008;47.514;19.218;2022-09-28T15:44:24;16.11;64.56
68189;DHT22;55008;47.514;19.218;2022-09-28T15:47:06;16.02;65.06
68189;DHT22;55008;47.514;19.218;2022-09-28T15:49:39;16.02;65.49
68189;DHT22;55008;47.514;19.218;2022-09-28T15:52:23;15.94;65.49
68189;DHT22;55008;47.514;19.218;2022-09-28T15:54:54;15.82;66.53
68189;DHT22;55008;47.514;19.218;2022-09-28T15:57:34;15.75;66.69
68189;DHT22;55008;47.514;19.218;2022-09-28T16:00:23;15.78;66.03
68189;DHT22;55008;47.514;19.218;2022-09-28T16:03:19;15.77;65.98
68189;DHT22;55008;47.514;19.218;2022-09-28T16:06:04;15.75;65.44
68189;DHT22;55008;47.514;19.218;2022-09-28T16:08:39;15.64;66.52
68189;DHT22;55008;47.514;19.218;2022-09-28T16:11:15;15.60;65.33
68189;DHT22;55008;47.514;19.218;2022-09-28T16:13:56;15.55;65.27
68189;DHT22;55008;47.514;19.218;2022-09-28T16:16:33;15.51;66.45
68189;DHT22;55008;47.514;19.218;2022-09-28T16:19:02;15.42;67.77
68189;DHT22;55008;47.514;19.218;2022-09-28T16:21:41;15.37;67.05
68189;DHT22;55008;47.514;19.218;2022-09-28T16:24:22;15.36;67.12
68189;DHT22;55008;47.514;19.218;2022-09-28T16:26:56;15.29;67.84
68189;DHT22;55008;47.514;19.218;2022-09-28T16:29:33;15.26;67.07
68189;DHT22;55008;47.514;19.218;2022-09-28T16:32:33;15.23;67.70
68189;DHT22;55008;47.514;19.218;2022-09-28T16:35:16;15.18;67.77